createdAt,value
2023-03-23T15:58:43.148Z,54.99
2023-03-23T16:01:21.888Z,54.81
2023-03-23T16:03:55.777Z,55.18
2023-03-23T16:06:25.898Z,55.10
2023-03-23T16:08:55.100Z,55.13
2023-03-23T16:11:26.842Z,55.22
2023-03-23T16:13:53.747Z,55.00
2023-03-23T16:16:27.346Z,54.78
2023-03-23T16:18:54.752Z,54.76
2023-03-23T16:21:22.531Z,54.68
2023-03-23T16:23:49.401Z,54.46
2023-03-23T16:26:16.237Z,54.97
2023-03-23T16:28:43.761Z,55.07
2023-03-23T16:31:11.238Z,55.08
2023-03-23T16:33:38.093Z,55.13
2023-03-23T16:36:05.307Z,55.32
2023-03-23T16:38:32.392Z,55.30
2023-03-23T16:40:59.515Z,54.60
2023-03-23T16:43:26.366Z,54.54
2023-03-23T16:45:56.405Z,54.43
2023-03-23T16:48:23.873Z,54.69
2023-03-23T16:50:51.676Z,54.45
2023-03-23T16:53:19.120Z,54.59
2023-03-23T16:55:48.471Z,54.47
2023-03-23T16:58:17.766Z,54.38
2023-03-23T17:00:49.425Z,55.06
2023-03-23T17:03:18.175Z,55.41
2023-03-23T17:05:46.252Z,55.99
2023-03-23T17:08:13.390Z,55.88
2023-03-23T17:10:41.339Z,55.66
2023-03-23T17:13:08.955Z,55.70
2023-03-23T17:15:44.512Z,56.27
2023-03-23T17:18:14.255Z,56.06
2023-03-23T17:20:42.903Z,55.94
2023-03-23T17:23:09.601Z,55.92
2023-03-23T17:25:36.557Z,55.85
2023-03-23T17:28:05.708Z,56.23
2023-03-23T17:30:34.026Z,56.09
2023-03-23T17:33:00.872Z,56.04
2023-03-23T17:35:27.912Z,56.46
2023-03-23T17:37:54.813Z,56.31
2023-03-23T17:40:21.547Z,55.83
2023-03-23T17:42:48.174Z,55.95
2023-03-23T17:45:14.808Z,56.04
2023-03-23T17:47:41.548Z,56.40
2023-03-23T17:50:12.288Z,55.92
2023-03-23T17:52:40.473Z,55.97
2023-03-23T17:55:08.189Z,56.14
2023-03-23T17:57:35.471Z,55.96
2023-03-23T18:00:02.936Z,55.86
2023-03-23T18:02:33.897Z,55.93
2023-03-23T18:05:00.919Z,55.94
2023-03-23T18:07:27.851Z,55.65
2023-03-23T18:09:59.592Z,56.09
2023-03-23T18:12:26.661Z,55.60
2023-03-23T18:14:59.558Z,55.59
2023-03-23T18:17:27.052Z,55.82
2023-03-23T18:19:54.408Z,55.84
2023-03-23T18:22:21.646Z,55.76
2023-03-23T18:24:48.300Z,55.71
2023-03-23T18:27:15.143Z,55.91
2023-03-23T18:29:41.976Z,55.54
2023-03-23T18:32:09.113Z,55.60
2023-03-23T18:34:36.894Z,55.69
2023-03-23T18:37:06.853Z,55.81
2023-03-23T18:39:34.215Z,55.90
2023-03-23T18:42:01.633Z,55.68
2023-03-23T18:44:28.315Z,55.98
2023-03-23T18:46:55.048Z,55.77
2023-03-23T18:49:22.059Z,56.02
2023-03-23T18:51:49.087Z,55.56
2023-03-23T18:54:17.365Z,55.87
2023-03-23T18:56:44.122Z,55.56
2023-03-23T18:59:11.024Z,55.71
2023-03-23T19:01:37.764Z,55.58
2023-03-23T19:04:06.454Z,55.86
2023-03-23T19:06:34.976Z,55.46
2023-03-23T19:09:02.142Z,55.44
2023-03-23T19:11:29.229Z,55.67
2023-03-23T19:14:02.163Z,55.70
2023-03-23T19:16:32.336Z,55.79
2023-03-23T19:19:02.035Z,55.77
2023-03-23T19:21:31.476Z,55.38
2023-03-23T19:23:59.175Z,55.43
2023-03-23T19:26:46.494Z,55.80
2023-03-23T19:29:26.625Z,55.64
2023-03-23T19:31:55.444Z,55.78
2023-03-23T19:34:23.016Z,55.28
2023-03-23T19:36:54.986Z,55.69
2023-03-23T19:39:26.668Z,55.50
2023-03-23T19:41:53.471Z,55.50
2023-03-23T19:44:20.380Z,55.15
2023-03-23T19:46:48.364Z,55.41
2023-03-23T19:49:15.202Z,55.58
2023-03-23T19:51:42.102Z,55.38
2023-03-23T19:54:09.067Z,55.69
2023-03-23T19:56:36.227Z,55.37
2023-03-23T19:59:03.364Z,55.29
2023-03-23T20:01:30.468Z,55.44
2023-03-23T20:03:59.964Z,55.49
2023-03-23T20:06:29.320Z,55.55
2023-03-23T20:09:00.090Z,55.36
2023-03-23T20:11:28.627Z,55.29
2023-03-23T20:13:56.682Z,55.46
2023-03-23T20:16:24.880Z,55.37
2023-03-23T20:18:52.901Z,55.34
2023-03-23T20:21:22.975Z,55.55
2023-03-23T20:23:52.380Z,55.11
2023-03-23T20:26:40.263Z,55.23
2023-03-23T20:29:08.032Z,55.14
2023-03-23T20:31:37.878Z,55.33
2023-03-23T20:34:08.639Z,55.14
2023-03-23T20:36:42.218Z,55.12
2023-03-23T20:39:21.499Z,54.89
2023-03-23T20:41:54.454Z,55.23
2023-03-23T20:44:23.325Z,55.01
2023-03-23T20:46:51.919Z,55.38
2023-03-23T20:49:20.928Z,55.34
2023-03-23T20:51:48.338Z,55.17
2023-03-23T20:54:16.695Z,54.87
2023-03-23T20:56:45.268Z,54.88
2023-03-23T20:59:12.747Z,55.01
2023-03-23T21:01:40.073Z,55.16
2023-03-23T21:04:14.894Z,55.03
2023-03-23T21:06:43.377Z,55.62
2023-03-23T21:09:10.173Z,55.47
2023-03-23T21:11:57.223Z,55.75
2023-03-23T21:14:24.285Z,55.57
2023-03-23T21:16:51.420Z,55.69
2023-03-23T21:19:19.579Z,55.98
2023-03-23T21:21:56.266Z,55.97
2023-03-23T21:24:29.270Z,56.27
2023-03-23T21:26:58.934Z,56.67
2023-03-23T21:29:27.655Z,56.96
2023-03-23T21:32:07.045Z,56.68
2023-03-23T21:34:36.066Z,57.02
2023-03-23T21:37:02.936Z,56.95
2023-03-23T21:39:29.637Z,56.76
2023-03-23T21:41:56.412Z,56.85
2023-03-23T21:44:23.126Z,56.99
2023-03-23T21:47:04.737Z,57.33
2023-03-23T21:49:31.718Z,57.53
2023-03-23T21:51:58.539Z,57.49
2023-03-23T21:54:30.397Z,57.47
2023-03-23T21:56:58.867Z,57.43
2023-03-23T21:59:26.352Z,57.66
2023-03-23T22:01:53.826Z,57.84
2023-03-23T22:04:21.054Z,57.69
2023-03-23T22:06:47.990Z,57.83
2023-03-23T22:09:15.330Z,57.70
2023-03-23T22:11:42.227Z,57.78
2023-03-23T22:14:09.358Z,57.82
2023-03-23T22:16:36.507Z,58.23
2023-03-23T22:19:03.673Z,58.13
2023-03-23T22:21:30.650Z,58.17
2023-03-23T22:23:59.707Z,58.15
2023-03-23T22:26:28.097Z,58.23
2023-03-23T22:28:56.075Z,58.42
2023-03-23T22:31:26.634Z,58.36
2023-03-23T22:33:55.461Z,58.33
2023-03-23T22:36:26.436Z,58.54
2023-03-23T22:38:55.552Z,58.70
2023-03-23T22:41:28.209Z,58.46
2023-03-23T22:43:55.212Z,58.94
2023-03-23T22:46:22.939Z,58.71
2023-03-23T22:48:49.944Z,58.88
2023-03-23T22:51:18.524Z,59.18
2023-03-23T22:53:46.085Z,58.96
2023-03-23T22:56:13.520Z,58.95
2023-03-23T22:58:40.712Z,59.04
2023-03-23T23:01:11.978Z,58.89
2023-03-23T23:03:40.167Z,59.06
2023-03-23T23:06:07.884Z,58.89
2023-03-23T23:08:34.746Z,59.13
2023-03-23T23:11:03.661Z,59.02
2023-03-23T23:13:32.662Z,59.03
2023-03-23T23:16:02.037Z,59.04
2023-03-23T23:18:30.833Z,59.28
2023-03-23T23:20:59.739Z,59.15
2023-03-23T23:23:27.904Z,58.99
2023-03-23T23:25:55.204Z,59.28
2023-03-23T23:28:22.900Z,59.17
2023-03-23T23:30:50.991Z,59.35
2023-03-23T23:33:19.007Z,59.31
2023-03-23T23:35:48.102Z,59.38
2023-03-23T23:38:16.144Z,59.38
2023-03-23T23:40:46.086Z,59.39
2023-03-23T23:43:15.366Z,59.47
2023-03-23T23:45:42.644Z,59.32
2023-03-23T23:48:09.676Z,59.55
2023-03-23T23:50:36.655Z,59.59
2023-03-23T23:53:04.845Z,59.45
2023-03-23T23:55:32.277Z,59.69
2023-03-23T23:57:59.063Z,59.43
